sensor_id;sensor_type;location;lat;lon;timestamp;P1;durP1;ratioP1;P2;durP2;ratioP2
2522;SDS011;1272;53.332;9.860;2023-04-03T00:01:30;3.73;;;2.00;;
2522;SDS011;1272;53.332;9.860;2023-04-03T00:03:56;2.57;;;2.37;;
2522;SDS011;1272;53.332;9.860;2023-04-03T00:06:22;3.50;;;2.20;;
2522;SDS011;1272;53.332;9.860;2023-04-03T00:08:51;4.67;;;2.30;;
2522;SDS011;1272;53.332;9.860;2023-04-03T00:11:17;2.90;;;2.20;;
2522;SDS011;1272;53.332;9.860;2023-04-03T00:13:43;5.83;;;2.33;;
2522;SDS011;1272;53.332;9.860;2023-04-03T00:16:10;3.60;;;2.30;;
2522;SDS011;1272;53.332;9.860;2023-04-03T00:18:38;2.33;;;1.80;;
2522;SDS011;1272;53.332;9.860;2023-04-03T00:21:05;5.13;;;2.40;;
2522;SDS011;1272;53.332;9.860;2023-04-03T00:23:31;2.50;;;2.30;;
2522;SDS011;1272;53.332;9.860;2023-04-03T00:25:57;5.53;;;2.33;;
2522;SDS011;1272;53.332;9.860;2023-04-03T00:28:23;2.70;;;1.77;;
2522;SDS011;1272;53.332;9.860;2023-04-03T00:30:49;3.27;;;2.00;;
2522;SDS011;1272;53.332;9.860;2023-04-03T00:33:15;2.00;;;1.90;;
2522;SDS011;1272;53.332;9.860;2023-04-03T00:35:42;5.83;;;2.10;;
2522;SDS011;1272;53.332;9.860;2023-04-03T00:38:08;4.20;;;1.90;;
2522;SDS011;1272;53.332;9.860;2023-04-03T00:40:35;9.57;;;1.83;;
2522;SDS011;1272;53.332;9.860;2023-04-03T00:43:02;2.83;;;2.07;;
2522;SDS011;1272;53.332;9.860;2023-04-03T00:45:44;5.77;;;2.30;;
2522;SDS011;1272;53.332;9.860;2023-04-03T00:48:13;4.80;;;2.20;;
2522;SDS011;1272;53.332;9.860;2023-04-03T00:51:01;5.57;;;2.03;;
2522;SDS011;1272;53.332;9.860;2023-04-03T00:53:33;8.30;;;3.70;;
2522;SDS011;1272;53.332;9.860;2023-04-03T00:56:29;5.70;;;2.27;;
2522;SDS011;1272;53.332;9.860;2023-04-03T00:59:02;6.00;;;2.40;;
2522;SDS011;1272;53.332;9.860;2023-04-03T01:01:34;6.10;;;2.53;;
2522;SDS011;1272;53.332;9.860;2023-04-03T01:04:00;8.53;;;2.10;;
2522;SDS011;1272;53.332;9.860;2023-04-03T01:06:28;4.00;;;2.50;;
2522;SDS011;1272;53.332;9.860;2023-04-03T01:08:57;2.90;;;2.10;;
2522;SDS011;1272;53.332;9.860;2023-04-03T01:11:24;2.10;;;1.90;;
2522;SDS011;1272;53.332;9.860;2023-04-03T01:13:50;3.20;;;1.93;;
2522;SDS011;1272;53.332;9.860;2023-04-03T01:16:15;2.17;;;1.67;;
2522;SDS011;1272;53.332;9.860;2023-04-03T01:18:41;4.20;;;2.07;;
2522;SDS011;1272;53.332;9.860;2023-04-03T01:26:18;7.13;;;2.20;;
2522;SDS011;1272;53.332;9.860;2023-04-03T01:28:44;4.40;;;2.03;;
2522;SDS011;1272;53.332;9.860;2023-04-03T01:33:43;3.90;;;2.50;;
2522;SDS011;1272;53.332;9.860;2023-04-03T01:36:13;9.90;;;2.27;;
2522;SDS011;1272;53.332;9.860;2023-04-03T01:38:41;6.17;;;2.10;;
2522;SDS011;1272;53.332;9.860;2023-04-03T01:41:07;7.60;;;2.30;;
2522;SDS011;1272;53.332;9.860;2023-04-03T01:43:33;6.07;;;2.20;;
2522;SDS011;1272;53.332;9.860;2023-04-03T01:45:58;4.23;;;2.00;;
2522;SDS011;1272;53.332;9.860;2023-04-03T01:48:24;2.27;;;2.07;;
2522;SDS011;1272;53.332;9.860;2023-04-03T01:50:50;3.37;;;1.83;;
2522;SDS011;1272;53.332;9.860;2023-04-03T01:53:15;3.53;;;2.40;;
2522;SDS011;1272;53.332;9.860;2023-04-03T01:55:41;6.37;;;2.47;;
2522;SDS011;1272;53.332;9.860;2023-04-03T01:58:07;6.23;;;1.70;;
2522;SDS011;1272;53.332;9.860;2023-04-03T02:00:32;8.47;;;2.17;;
2522;SDS011;1272;53.332;9.860;2023-04-03T02:02:58;2.60;;;1.70;;
2522;SDS011;1272;53.332;9.860;2023-04-03T02:05:24;7.33;;;2.57;;
2522;SDS011;1272;53.332;9.860;2023-04-03T02:07:50;6.10;;;2.37;;
2522;SDS011;1272;53.332;9.860;2023-04-03T02:10:15;4.37;;;1.97;;
2522;SDS011;1272;53.332;9.860;2023-04-03T02:12:41;3.90;;;1.63;;
2522;SDS011;1272;53.332;9.860;2023-04-03T02:15:07;5.43;;;2.73;;
2522;SDS011;1272;53.332;9.860;2023-04-03T02:17:33;4.63;;;1.80;;
2522;SDS011;1272;53.332;9.860;2023-04-03T02:20:00;2.70;;;2.50;;
2522;SDS011;1272;53.332;9.860;2023-04-03T02:22:26;2.33;;;2.13;;
2522;SDS011;1272;53.332;9.860;2023-04-03T02:24:51;3.00;;;1.90;;
2522;SDS011;1272;53.332;9.860;2023-04-03T02:27:17;4.90;;;1.93;;
2522;SDS011;1272;53.332;9.860;2023-04-03T02:29:43;3.60;;;1.97;;
2522;SDS011;1272;53.332;9.860;2023-04-03T02:32:08;3.53;;;2.30;;
2522;SDS011;1272;53.332;9.860;2023-04-03T02:34:34;4.27;;;2.03;;
2522;SDS011;1272;53.332;9.860;2023-04-03T02:37:00;1.83;;;1.70;;
2522;SDS011;1272;53.332;9.860;2023-04-03T02:39:26;7.03;;;2.10;;
2522;SDS011;1272;53.332;9.860;2023-04-03T02:41:52;5.13;;;1.73;;
2522;SDS011;1272;53.332;9.860;2023-04-03T02:44:17;5.50;;;2.37;;
2522;SDS011;1272;53.332;9.860;2023-04-03T02:46:43;2.00;;;1.80;;
2522;SDS011;1272;53.332;9.860;2023-04-03T02:49:09;8.40;;;2.40;;
2522;SDS011;1272;53.332;9.860;2023-04-03T02:51:35;3.83;;;2.00;;
2522;SDS011;1272;53.332;9.860;2023-04-03T02:54:01;3.53;;;1.90;;
2522;SDS011;1272;53.332;9.860;2023-04-03T02:56:27;8.13;;;2.17;;
2522;SDS011;1272;53.332;9.860;2023-04-03T02:58:52;2.20;;;1.90;;
2522;SDS011;1272;53.332;9.860;2023-04-03T03:01:18;2.60;;;1.80;;
2522;SDS011;1272;53.332;9.860;2023-04-03T03:03:45;3.80;;;2.10;;
2522;SDS011;1272;53.332;9.860;2023-04-03T03:06:12;3.13;;;1.83;;
2522;SDS011;1272;53.332;9.860;2023-04-03T03:08:40;4.10;;;2.17;;
2522;SDS011;1272;53.332;9.860;2023-04-03T03:11:06;2.47;;;2.03;;
2522;SDS011;1272;53.332;9.860;2023-04-03T03:13:32;3.03;;;2.13;;
2522;SDS011;1272;53.332;9.860;2023-04-03T03:15:58;3.50;;;2.03;;
2522;SDS011;1272;53.332;9.860;2023-04-03T03:18:25;3.70;;;2.00;;
2522;SDS011;1272;53.332;9.860;2023-04-03T03:20:54;5.80;;;2.40;;
2522;SDS011;1272;53.332;9.860;2023-04-03T03:23:21;2.13;;;2.03;;
2522;SDS011;1272;53.332;9.860;2023-04-03T03:25:48;1.70;;;1.60;;
2522;SDS011;1272;53.332;9.860;2023-04-03T03:28:13;2.00;;;1.80;;
2522;SDS011;1272;53.332;9.860;2023-04-03T03:30:39;2.53;;;2.33;;
2522;SDS011;1272;53.332;9.860;2023-04-03T03:33:05;16.63;;;2.53;;
2522;SDS011;1272;53.332;9.860;2023-04-03T03:35:31;3.17;;;2.13;;
2522;SDS011;1272;53.332;9.860;2023-04-03T03:37:57;2.63;;;1.97;;
2522;SDS011;1272;53.332;9.860;2023-04-03T03:40:23;8.37;;;2.67;;
2522;SDS011;1272;53.332;9.860;2023-04-03T03:42:49;1.77;;;1.67;;
2522;SDS011;1272;53.332;9.860;2023-04-03T03:45:14;4.73;;;2.10;;
2522;SDS011;1272;53.332;9.860;2023-04-03T03:47:40;3.70;;;2.17;;
2522;SDS011;1272;53.332;9.860;2023-04-03T03:50:06;6.10;;;2.23;;
2522;SDS011;1272;53.332;9.860;2023-04-03T03:52:32;5.37;;;1.97;;
2522;SDS011;1272;53.332;9.860;2023-04-03T03:54:58;4.07;;;2.20;;
2522;SDS011;1272;53.332;9.860;2023-04-03T03:57:23;1.73;;;1.63;;
2522;SDS011;1272;53.332;9.860;2023-04-03T03:59:51;4.23;;;2.00;;
2522;SDS011;1272;53.332;9.860;2023-04-03T04:02:17;2.67;;;1.70;;
2522;SDS011;1272;53.332;9.860;2023-04-03T04:04:43;3.73;;;1.70;;
2522;SDS011;1272;53.332;9.860;2023-04-03T04:07:09;2.90;;;1.80;;
2522;SDS011;1272;53.332;9.860;2023-04-03T04:09:34;1.80;;;1.70;;
2522;SDS011;1272;53.332;9.860;2023-04-03T04:12:00;2.63;;;1.97;;
2522;SDS011;1272;53.332;9.860;2023-04-03T04:14:26;4.50;;;2.43;;
2522;SDS011;1272;53.332;9.860;2023-04-03T04:16:51;8.17;;;1.93;;
2522;SDS011;1272;53.332;9.860;2023-04-03T04:19:17;1.80;;;1.70;;
2522;SDS011;1272;53.332;9.860;2023-04-03T04:21:43;8.30;;;2.43;;
2522;SDS011;1272;53.332;9.860;2023-04-03T04:24:08;3.07;;;1.80;;
2522;SDS011;1272;53.332;9.860;2023-04-03T04:26:35;5.80;;;2.20;;
2522;SDS011;1272;53.332;9.860;2023-04-03T04:29:00;3.10;;;2.20;;
2522;SDS011;1272;53.332;9.860;2023-04-03T04:31:26;4.67;;;2.20;;
2522;SDS011;1272;53.332;9.860;2023-04-03T04:33:52;3.10;;;1.70;;
2522;SDS011;1272;53.332;9.860;2023-04-03T04:36:18;3.03;;;1.60;;
2522;SDS011;1272;53.332;9.860;2023-04-03T04:38:44;2.13;;;1.90;;
2522;SDS011;1272;53.332;9.860;2023-04-03T04:41:10;1.80;;;1.70;;
2522;SDS011;1272;53.332;9.860;2023-04-03T04:43:36;2.97;;;1.77;;
2522;SDS011;1272;53.332;9.860;2023-04-03T04:46:08;3.73;;;1.73;;
2522;SDS011;1272;53.332;9.860;2023-04-03T04:48:37;4.00;;;1.77;;
2522;SDS011;1272;53.332;9.860;2023-04-03T04:51:03;4.93;;;2.43;;
2522;SDS011;1272;53.332;9.860;2023-04-03T04:53:29;4.73;;;2.13;;
2522;SDS011;1272;53.332;9.860;2023-04-03T04:55:55;2.03;;;1.70;;
2522;SDS011;1272;53.332;9.860;2023-04-03T04:58:21;2.90;;;2.00;;
2522;SDS011;1272;53.332;9.860;2023-04-03T05:00:46;3.60;;;2.40;;
2522;SDS011;1272;53.332;9.860;2023-04-03T05:03:12;1.77;;;1.57;;
2522;SDS011;1272;53.332;9.860;2023-04-03T05:05:38;2.03;;;1.80;;
2522;SDS011;1272;53.332;9.860;2023-04-03T05:08:04;6.50;;;2.13;;
2522;SDS011;1272;53.332;9.860;2023-04-03T05:10:31;4.57;;;2.13;;
2522;SDS011;1272;53.332;9.860;2023-04-03T05:12:57;5.70;;;1.97;;
2522;SDS011;1272;53.332;9.860;2023-04-03T05:15:23;1.70;;;1.60;;
2522;SDS011;1272;53.332;9.860;2023-04-03T05:17:48;6.33;;;2.00;;
2522;SDS011;1272;53.332;9.860;2023-04-03T05:20:15;3.67;;;2.27;;
2522;SDS011;1272;53.332;9.860;2023-04-03T05:22:41;4.03;;;2.30;;
2522;SDS011;1272;53.332;9.860;2023-04-03T05:25:06;5.63;;;2.63;;
2522;SDS011;1272;53.332;9.860;2023-04-03T05:27:32;2.47;;;2.27;;
2522;SDS011;1272;53.332;9.860;2023-04-03T05:29:58;5.43;;;2.10;;
2522;SDS011;1272;53.332;9.860;2023-04-03T05:32:24;4.37;;;2.13;;
2522;SDS011;1272;53.332;9.860;2023-04-03T05:34:52;4.87;;;2.60;;
2522;SDS011;1272;53.332;9.860;2023-04-03T05:37:18;6.07;;;2.57;;
2522;SDS011;1272;53.332;9.860;2023-04-03T05:39:44;2.47;;;1.90;;
2522;SDS011;1272;53.332;9.860;2023-04-03T05:42:09;2.83;;;2.50;;
2522;SDS011;1272;53.332;9.860;2023-04-03T05:44:36;4.93;;;2.70;;
2522;SDS011;1272;53.332;9.860;2023-04-03T05:47:02;7.20;;;2.67;;
2522;SDS011;1272;53.332;9.860;2023-04-03T05:49:28;4.53;;;2.77;;
2522;SDS011;1272;53.332;9.860;2023-04-03T05:51:54;4.20;;;3.20;;
2522;SDS011;1272;53.332;9.860;2023-04-03T05:54:21;7.73;;;3.27;;
2522;SDS011;1272;53.332;9.860;2023-04-03T05:56:57;4.53;;;2.60;;
2522;SDS011;1272;53.332;9.860;2023-04-03T05:59:23;3.53;;;2.60;;
2522;SDS011;1272;53.332;9.860;2023-04-03T06:01:49;4.03;;;2.80;;
2522;SDS011;1272;53.332;9.860;2023-04-03T06:04:14;5.80;;;2.80;;
2522;SDS011;1272;53.332;9.860;2023-04-03T06:06:48;4.43;;;3.10;;
2522;SDS011;1272;53.332;9.860;2023-04-03T06:09:23;3.53;;;3.07;;
2522;SDS011;1272;53.332;9.860;2023-04-03T06:11:51;4.80;;;3.10;;
2522;SDS011;1272;53.332;9.860;2023-04-03T06:14:17;8.23;;;2.83;;
2522;SDS011;1272;53.332;9.860;2023-04-03T06:16:43;4.67;;;2.90;;
2522;SDS011;1272;53.332;9.860;2023-04-03T06:19:10;6.00;;;2.63;;
2522;SDS011;1272;53.332;9.860;2023-04-03T06:21:36;4.77;;;3.10;;
2522;SDS011;1272;53.332;9.860;2023-04-03T06:24:03;6.10;;;3.70;;
2522;SDS011;1272;53.332;9.860;2023-04-03T06:26:30;5.60;;;3.20;;
2522;SDS011;1272;53.332;9.860;2023-04-03T06:28:56;3.43;;;2.33;;
2522;SDS011;1272;53.332;9.860;2023-04-03T06:31:22;2.93;;;2.20;;
2522;SDS011;1272;53.332;9.860;2023-04-03T06:33:48;4.63;;;1.90;;
2522;SDS011;1272;53.332;9.860;2023-04-03T06:36:14;5.60;;;2.00;;
2522;SDS011;1272;53.332;9.860;2023-04-03T06:38:44;3.53;;;1.87;;
2522;SDS011;1272;53.332;9.860;2023-04-03T06:41:10;3.00;;;2.10;;
2522;SDS011;1272;53.332;9.860;2023-04-03T06:43:36;5.17;;;4.23;;
2522;SDS011;1272;53.332;9.860;2023-04-03T06:46:02;5.80;;;2.20;;
2522;SDS011;1272;53.332;9.860;2023-04-03T06:48:34;3.23;;;1.87;;
2522;SDS011;1272;53.332;9.860;2023-04-03T06:51:03;2.67;;;2.20;;
2522;SDS011;1272;53.332;9.860;2023-04-03T06:53:28;2.13;;;1.73;;
2522;SDS011;1272;53.332;9.860;2023-04-03T06:55:54;2.00;;;1.63;;
2522;SDS011;1272;53.332;9.860;2023-04-03T06:58:20;2.00;;;1.90;;
2522;SDS011;1272;53.332;9.860;2023-04-03T07:00:47;3.73;;;1.53;;
2522;SDS011;1272;53.332;9.860;2023-04-03T07:03:12;1.40;;;1.30;;
2522;SDS011;1272;53.332;9.860;2023-04-03T07:05:39;2.50;;;1.57;;
2522;SDS011;1272;53.332;9.860;2023-04-03T07:08:05;3.70;;;2.27;;
2522;SDS011;1272;53.332;9.860;2023-04-03T07:10:31;2.10;;;1.90;;
2522;SDS011;1272;53.332;9.860;2023-04-03T07:12:56;3.40;;;1.80;;
2522;SDS011;1272;53.332;9.860;2023-04-03T07:15:22;1.37;;;1.30;;
2522;SDS011;1272;53.332;9.860;2023-04-03T07:17:49;2.50;;;1.30;;
2522;SDS011;1272;53.332;9.860;2023-04-03T07:20:14;2.00;;;1.80;;
2522;SDS011;1272;53.332;9.860;2023-04-03T07:22:40;4.50;;;1.63;;
2522;SDS011;1272;53.332;9.860;2023-04-03T07:25:06;1.93;;;1.60;;
2522;SDS011;1272;53.332;9.860;2023-04-03T07:27:32;1.87;;;1.50;;
2522;SDS011;1272;53.332;9.860;2023-04-03T07:29:59;3.97;;;2.80;;
2522;SDS011;1272;53.332;9.860;2023-04-03T07:32:24;2.03;;;1.47;;
2522;SDS011;1272;53.332;9.860;2023-04-03T07:34:50;5.40;;;1.80;;
2522;SDS011;1272;53.332;9.860;2023-04-03T07:37:16;3.23;;;1.50;;
2522;SDS011;1272;53.332;9.860;2023-04-03T07:39:43;4.27;;;1.60;;
2522;SDS011;1272;53.332;9.860;2023-04-03T07:42:09;1.63;;;1.53;;
2522;SDS011;1272;53.332;9.860;2023-04-03T07:44:35;1.53;;;1.37;;
2522;SDS011;1272;53.332;9.860;2023-04-03T07:47:01;2.03;;;1.90;;
2522;SDS011;1272;53.332;9.860;2023-04-03T07:49:27;3.83;;;1.33;;
2522;SDS011;1272;53.332;9.860;2023-04-03T07:51:53;3.43;;;1.27;;
2522;SDS011;1272;53.332;9.860;2023-04-03T07:54:19;2.73;;;1.53;;
2522;SDS011;1272;53.332;9.860;2023-04-03T07:56:45;2.20;;;1.37;;
2522;SDS011;1272;53.332;9.860;2023-04-03T07:59:11;1.40;;;1.30;;
2522;SDS011;1272;53.332;9.860;2023-04-03T08:01:37;1.57;;;1.47;;
2522;SDS011;1272;53.332;9.860;2023-04-03T08:04:02;3.10;;;1.60;;
2522;SDS011;1272;53.332;9.860;2023-04-03T08:06:28;4.73;;;1.30;;
2522;SDS011;1272;53.332;9.860;2023-04-03T08:08:56;3.47;;;1.60;;
2522;SDS011;1272;53.332;9.860;2023-04-03T08:11:23;2.70;;;1.37;;
2522;SDS011;1272;53.332;9.860;2023-04-03T08:13:51;3.30;;;1.40;;
2522;SDS011;1272;53.332;9.860;2023-04-03T08:16:18;1.80;;;1.57;;
2522;SDS011;1272;53.332;9.860;2023-04-03T08:18:47;2.33;;;1.40;;
2522;SDS011;1272;53.332;9.860;2023-04-03T08:21:13;3.53;;;1.47;;
2522;SDS011;1272;53.332;9.860;2023-04-03T08:23:39;9.77;;;2.07;;
2522;SDS011;1272;53.332;9.860;2023-04-03T08:26:10;2.20;;;1.30;;
2522;SDS011;1272;53.332;9.860;2023-04-03T08:28:38;2.40;;;1.07;;
2522;SDS011;1272;53.332;9.860;2023-04-03T08:31:06;6.23;;;1.70;;
2522;SDS011;1272;53.332;9.860;2023-04-03T08:33:35;3.97;;;1.23;;
2522;SDS011;1272;53.332;9.860;2023-04-03T08:36:05;1.83;;;1.63;;
2522;SDS011;1272;53.332;9.860;2023-04-03T08:38:32;3.43;;;1.20;;
2522;SDS011;1272;53.332;9.860;2023-04-03T08:41:04;3.83;;;1.53;;
2522;SDS011;1272;53.332;9.860;2023-04-03T08:46:06;3.20;;;1.27;;
2522;SDS011;1272;53.332;9.860;2023-04-03T08:48:37;4.33;;;1.13;;
2522;SDS011;1272;53.332;9.860;2023-04-03T08:51:13;2.50;;;1.60;;
2522;SDS011;1272;53.332;9.860;2023-04-03T08:53:42;4.10;;;1.70;;
2522;SDS011;1272;53.332;9.860;2023-04-03T08:56:30;4.43;;;1.57;;
2522;SDS011;1272;53.332;9.860;2023-04-03T08:58:59;3.00;;;1.40;;
2522;SDS011;1272;53.332;9.860;2023-04-03T09:04:03;2.40;;;2.20;;
2522;SDS011;1272;53.332;9.860;2023-04-03T09:06:35;4.97;;;1.37;;
2522;SDS011;1272;53.332;9.860;2023-04-03T09:09:15;3.27;;;1.13;;
2522;SDS011;1272;53.332;9.860;2023-04-03T09:11:52;5.87;;;1.90;;
2522;SDS011;1272;53.332;9.860;2023-04-03T09:17:38;3.80;;;1.10;;
2522;SDS011;1272;53.332;9.860;2023-04-03T09:22:52;1.00;;;0.90;;
2522;SDS011;1272;53.332;9.860;2023-04-03T09:27:50;4.23;;;1.57;;
2522;SDS011;1272;53.332;9.860;2023-04-03T09:30:17;2.30;;;1.70;;
2522;SDS011;1272;53.332;9.860;2023-04-03T09:32:49;3.80;;;1.37;;
2522;SDS011;1272;53.332;9.860;2023-04-03T09:37:50;2.90;;;1.03;;
2522;SDS011;1272;53.332;9.860;2023-04-03T09:40:28;2.40;;;1.07;;
2522;SDS011;1272;53.332;9.860;2023-04-03T09:42:56;4.67;;;1.20;;
2522;SDS011;1272;53.332;9.860;2023-04-03T09:45:33;2.60;;;1.10;;
2522;SDS011;1272;53.332;9.860;2023-04-03T09:48:15;1.60;;;1.03;;
2522;SDS011;1272;53.332;9.860;2023-04-03T09:53:37;2.07;;;1.57;;
2522;SDS011;1272;53.332;9.860;2023-04-03T09:56:47;1.77;;;0.97;;
2522;SDS011;1272;53.332;9.860;2023-04-03T10:01:25;1.43;;;1.33;;
2522;SDS011;1272;53.332;9.860;2023-04-03T10:06:42;1.23;;;1.03;;
2522;SDS011;1272;53.332;9.860;2023-04-03T10:12:08;2.70;;;1.23;;
2522;SDS011;1272;53.332;9.860;2023-04-03T10:20:06;2.10;;;1.17;;
2522;SDS011;1272;53.332;9.860;2023-04-03T10:26:13;2.40;;;1.03;;
2522;SDS011;1272;53.332;9.860;2023-04-03T10:28:49;1.03;;;0.90;;
2522;SDS011;1272;53.332;9.860;2023-04-03T10:34:47;1.10;;;1.00;;
2522;SDS011;1272;53.332;9.860;2023-04-03T10:37:47;3.70;;;1.50;;
2522;SDS011;1272;53.332;9.860;2023-04-03T10:43:08;1.47;;;1.20;;
2522;SDS011;1272;53.332;9.860;2023-04-03T10:51:19;3.90;;;1.13;;
2522;SDS011;1272;53.332;9.860;2023-04-03T10:56:52;1.30;;;1.20;;
2522;SDS011;1272;53.332;9.860;2023-04-03T10:59:38;3.90;;;1.10;;
2522;SDS011;1272;53.332;9.860;2023-04-03T11:02:23;2.00;;;1.30;;
2522;SDS011;1272;53.332;9.860;2023-04-03T11:08:27;1.17;;;1.07;;
2522;SDS011;1272;53.332;9.860;2023-04-03T11:11:02;6.23;;;1.60;;
2522;SDS011;1272;53.332;9.860;2023-04-03T11:16:47;2.23;;;1.33;;
2522;SDS011;1272;53.332;9.860;2023-04-03T11:19:20;3.63;;;1.30;;
2522;SDS011;1272;53.332;9.860;2023-04-03T11:22:53;3.47;;;1.00;;
2522;SDS011;1272;53.332;9.860;2023-04-03T11:27:42;1.90;;;1.17;;
2522;SDS011;1272;53.332;9.860;2023-04-03T11:30:18;3.40;;;1.60;;
2522;SDS011;1272;53.332;9.860;2023-04-03T11:35:51;3.43;;;1.63;;
2522;SDS011;1272;53.332;9.860;2023-04-03T11:38:25;2.13;;;1.07;;
2522;SDS011;1272;53.332;9.860;2023-04-03T11:40:55;2.10;;;1.23;;
2522;SDS011;1272;53.332;9.860;2023-04-03T11:43:27;0.93;;;0.93;;
2522;SDS011;1272;53.332;9.860;2023-04-03T11:46:05;1.93;;;1.30;;
2522;SDS011;1272;53.332;9.860;2023-04-03T11:53:38;1.30;;;1.20;;
2522;SDS011;1272;53.332;9.860;2023-04-03T11:59:30;1.83;;;1.13;;
2522;SDS011;1272;53.332;9.860;2023-04-03T12:04:11;1.17;;;1.10;;
2522;SDS011;1272;53.332;9.860;2023-04-03T12:11:52;1.67;;;1.30;;
2522;SDS011;1272;53.332;9.860;2023-04-03T12:14:22;1.20;;;1.00;;
2522;SDS011;1272;53.332;9.860;2023-04-03T12:16:50;1.10;;;1.00;;
2522;SDS011;1272;53.332;9.860;2023-04-03T12:19:35;1.37;;;1.30;;
2522;SDS011;1272;53.332;9.860;2023-04-03T12:22:12;1.10;;;1.00;;
2522;SDS011;1272;53.332;9.860;2023-04-03T12:24:44;1.07;;;1.07;;
2522;SDS011;1272;53.332;9.860;2023-04-03T12:27:24;3.07;;;1.40;;
2522;SDS011;1272;53.332;9.860;2023-04-03T12:46:02;1.43;;;1.00;;
2522;SDS011;1272;53.332;9.860;2023-04-03T12:48:38;1.30;;;1.20;;
2522;SDS011;1272;53.332;9.860;2023-04-03T12:51:22;1.73;;;1.17;;
2522;SDS011;1272;53.332;9.860;2023-04-03T12:53:59;2.80;;;1.27;;
2522;SDS011;1272;53.332;9.860;2023-04-03T12:56:38;2.20;;;1.53;;
2522;SDS011;1272;53.332;9.860;2023-04-03T12:59:14;1.83;;;1.20;;
2522;SDS011;1272;53.332;9.860;2023-04-03T13:01:56;1.20;;;1.00;;
2522;SDS011;1272;53.332;9.860;2023-04-03T13:04:24;3.10;;;1.10;;
2522;SDS011;1272;53.332;9.860;2023-04-03T13:06:51;3.40;;;1.20;;
2522;SDS011;1272;53.332;9.860;2023-04-03T13:09:27;1.67;;;1.20;;
2522;SDS011;1272;53.332;9.860;2023-04-03T13:12:01;2.10;;;1.10;;
2522;SDS011;1272;53.332;9.860;2023-04-03T13:14:34;1.43;;;1.03;;
2522;SDS011;1272;53.332;9.860;2023-04-03T13:17:09;1.40;;;1.30;;
2522;SDS011;1272;53.332;9.860;2023-04-03T13:19:40;2.30;;;1.47;;
2522;SDS011;1272;53.332;9.860;2023-04-03T13:22:14;1.83;;;1.20;;
2522;SDS011;1272;53.332;9.860;2023-04-03T13:24:54;1.30;;;1.20;;
2522;SDS011;1272;53.332;9.860;2023-04-03T13:27:31;2.27;;;1.33;;
2522;SDS011;1272;53.332;9.860;2023-04-03T13:29:58;1.37;;;1.20;;
2522;SDS011;1272;53.332;9.860;2023-04-03T13:32:26;1.67;;;1.03;;
2522;SDS011;1272;53.332;9.860;2023-04-03T13:34:54;1.73;;;1.20;;
2522;SDS011;1272;53.332;9.860;2023-04-03T13:37:32;1.60;;;1.10;;
2522;SDS011;1272;53.332;9.860;2023-04-03T13:40:00;2.77;;;1.87;;
2522;SDS011;1272;53.332;9.860;2023-04-03T13:42:37;2.10;;;1.20;;
2522;SDS011;1272;53.332;9.860;2023-04-03T13:45:10;1.60;;;1.20;;
2522;SDS011;1272;53.332;9.860;2023-04-03T13:47:46;3.33;;;1.23;;
2522;SDS011;1272;53.332;9.860;2023-04-03T13:50:24;1.33;;;1.10;;
2522;SDS011;1272;53.332;9.860;2023-04-03T13:53:00;1.67;;;1.30;;
2522;SDS011;1272;53.332;9.860;2023-04-03T13:55:32;1.73;;;1.10;;
2522;SDS011;1272;53.332;9.860;2023-04-03T14:00:47;2.97;;;1.10;;
2522;SDS011;1272;53.332;9.860;2023-04-03T14:03:20;3.23;;;1.17;;
2522;SDS011;1272;53.332;9.860;2023-04-03T14:05:48;3.33;;;1.60;;
2522;SDS011;1272;53.332;9.860;2023-04-03T14:08:14;1.77;;;1.20;;
2522;SDS011;1272;53.332;9.860;2023-04-03T14:10:41;1.20;;;1.10;;
2522;SDS011;1272;53.332;9.860;2023-04-03T14:13:14;3.37;;;1.07;;
2522;SDS011;1272;53.332;9.860;2023-04-03T14:15:40;3.20;;;1.20;;
2522;SDS011;1272;53.332;9.860;2023-04-03T14:18:10;1.63;;;1.50;;
2522;SDS011;1272;53.332;9.860;2023-04-03T14:20:39;2.17;;;1.50;;
2522;SDS011;1272;53.332;9.860;2023-04-03T14:23:05;2.33;;;1.03;;
2522;SDS011;1272;53.332;9.860;2023-04-03T14:25:31;3.23;;;1.27;;
2522;SDS011;1272;53.332;9.860;2023-04-03T14:27:57;1.90;;;1.10;;
2522;SDS011;1272;53.332;9.860;2023-04-03T14:30:32;2.50;;;2.03;;
2522;SDS011;1272;53.332;9.860;2023-04-03T14:32:59;3.20;;;1.30;;
2522;SDS011;1272;53.332;9.860;2023-04-03T14:35:26;1.83;;;1.00;;
2522;SDS011;1272;53.332;9.860;2023-04-03T14:37:52;6.40;;;1.30;;
2522;SDS011;1272;53.332;9.860;2023-04-03T14:40:20;2.10;;;1.27;;
2522;SDS011;1272;53.332;9.860;2023-04-03T14:42:49;1.43;;;1.33;;
2522;SDS011;1272;53.332;9.860;2023-04-03T14:45:16;1.50;;;1.00;;
2522;SDS011;1272;53.332;9.860;2023-04-03T14:47:47;2.33;;;1.23;;
2522;SDS011;1272;53.332;9.860;2023-04-03T14:50:18;4.40;;;1.83;;
2522;SDS011;1272;53.332;9.860;2023-04-03T14:52:47;1.40;;;1.30;;
2522;SDS011;1272;53.332;9.860;2023-04-03T14:55:15;1.43;;;1.33;;
2522;SDS011;1272;53.332;9.860;2023-04-03T14:57:42;1.57;;;1.27;;
2522;SDS011;1272;53.332;9.860;2023-04-03T15:00:18;2.00;;;1.50;;
2522;SDS011;1272;53.332;9.860;2023-04-03T15:02:46;1.83;;;1.50;;
2522;SDS011;1272;53.332;9.860;2023-04-03T15:05:13;2.73;;;1.10;;
2522;SDS011;1272;53.332;9.860;2023-04-03T15:07:41;1.43;;;1.20;;
2522;SDS011;1272;53.332;9.860;2023-04-03T15:10:18;2.93;;;1.10;;
2522;SDS011;1272;53.332;9.860;2023-04-03T15:12:49;1.33;;;0.90;;
2522;SDS011;1272;53.332;9.860;2023-04-03T15:15:16;1.03;;;0.90;;
2522;SDS011;1272;53.332;9.860;2023-04-03T15:17:44;1.10;;;1.00;;
2522;SDS011;1272;53.332;9.860;2023-04-03T15:20:17;4.43;;;1.40;;
2522;SDS011;1272;53.332;9.860;2023-04-03T15:22:45;2.20;;;1.17;;
2522;SDS011;1272;53.332;9.860;2023-04-03T15:25:11;1.50;;;1.40;;
2522;SDS011;1272;53.332;9.860;2023-04-03T15:27:39;2.47;;;1.30;;
2522;SDS011;1272;53.332;9.860;2023-04-03T15:30:07;1.33;;;1.00;;
2522;SDS011;1272;53.332;9.860;2023-04-03T15:32:39;1.73;;;1.30;;
2522;SDS011;1272;53.332;9.860;2023-04-03T15:35:05;1.87;;;1.40;;
2522;SDS011;1272;53.332;9.860;2023-04-03T15:37:31;2.17;;;1.20;;
2522;SDS011;1272;53.332;9.860;2023-04-03T15:39:57;1.13;;;0.80;;
2522;SDS011;1272;53.332;9.860;2023-04-03T15:42:22;1.80;;;0.97;;
2522;SDS011;1272;53.332;9.860;2023-04-03T15:44:48;1.30;;;1.20;;
2522;SDS011;1272;53.332;9.860;2023-04-03T15:47:14;1.57;;;0.93;;
2522;SDS011;1272;53.332;9.860;2023-04-03T15:49:40;1.00;;;1.00;;
2522;SDS011;1272;53.332;9.860;2023-04-03T15:52:06;2.50;;;1.50;;
2522;SDS011;1272;53.332;9.860;2023-04-03T15:54:36;2.10;;;1.40;;
2522;SDS011;1272;53.332;9.860;2023-04-03T15:57:02;1.60;;;1.50;;
2522;SDS011;1272;53.332;9.860;2023-04-03T15:59:27;1.20;;;1.20;;
2522;SDS011;1272;53.332;9.860;2023-04-03T16:01:55;1.23;;;0.97;;
2522;SDS011;1272;53.332;9.860;2023-04-03T16:04:22;1.77;;;1.50;;
2522;SDS011;1272;53.332;9.860;2023-04-03T16:06:48;1.53;;;1.03;;
2522;SDS011;1272;53.332;9.860;2023-04-03T16:09:14;1.50;;;1.50;;
2522;SDS011;1272;53.332;9.860;2023-04-03T16:11:40;1.30;;;1.20;;
2522;SDS011;1272;53.332;9.860;2023-04-03T16:14:06;1.33;;;1.10;;
2522;SDS011;1272;53.332;9.860;2023-04-03T16:16:32;1.70;;;1.17;;
2522;SDS011;1272;53.332;9.860;2023-04-03T16:18:58;1.50;;;1.07;;
2522;SDS011;1272;53.332;9.860;2023-04-03T16:21:23;4.33;;;1.10;;
2522;SDS011;1272;53.332;9.860;2023-04-03T16:23:50;2.63;;;1.10;;
2522;SDS011;1272;53.332;9.860;2023-04-03T16:26:16;1.87;;;1.10;;
2522;SDS011;1272;53.332;9.860;2023-04-03T16:28:42;1.63;;;1.50;;
2522;SDS011;1272;53.332;9.860;2023-04-03T16:31:08;1.20;;;1.10;;
2522;SDS011;1272;53.332;9.860;2023-04-03T16:33:35;2.13;;;1.00;;
2522;SDS011;1272;53.332;9.860;2023-04-03T16:36:02;1.53;;;1.13;;
2522;SDS011;1272;53.332;9.860;2023-04-03T16:38:29;1.30;;;1.20;;
2522;SDS011;1272;53.332;9.860;2023-04-03T16:40:55;2.13;;;1.30;;
2522;SDS011;1272;53.332;9.860;2023-04-03T16:43:24;3.33;;;1.30;;
2522;SDS011;1272;53.332;9.860;2023-04-03T16:45:51;1.33;;;1.20;;
2522;SDS011;1272;53.332;9.860;2023-04-03T16:48:17;3.90;;;1.17;;
2522;SDS011;1272;53.332;9.860;2023-04-03T16:50:46;3.47;;;1.03;;
2522;SDS011;1272;53.332;9.860;2023-04-03T16:53:13;3.27;;;1.50;;
2522;SDS011;1272;53.332;9.860;2023-04-03T16:55:39;3.60;;;1.80;;
2522;SDS011;1272;53.332;9.860;2023-04-03T16:58:05;1.80;;;1.30;;
2522;SDS011;1272;53.332;9.860;2023-04-03T17:00:31;2.93;;;1.30;;
2522;SDS011;1272;53.332;9.860;2023-04-03T17:02:57;1.23;;;1.13;;
2522;SDS011;1272;53.332;9.860;2023-04-03T17:05:23;2.00;;;1.30;;
2522;SDS011;1272;53.332;9.860;2023-04-03T17:07:49;1.50;;;1.40;;
2522;SDS011;1272;53.332;9.860;2023-04-03T17:10:15;2.63;;;1.10;;